Current Weather

El Golea

El Golea, Algeria (DAUE)

Report from: Tuesday, July 16, 2024 10:00 AM CET
Current time: Tuesday, July 16, 2024 10:31 AM CET

Nearby weather – Weather history – Daily summaries
Weather forecast

Temperature41.0°C (105.8°F)
Heat index38.2°C (100.7°F)
Dew point4.0°C (39.2°F)
Winds 2 kts (1 m/s, 2.3 mph) Vrb
Winds variableWinds variable
Visibility6.2 mi. (10 km)
Clouds Few clouds 4,000 ft. (1,219 m)
Altimeter29.97 in.Hg (1015 mB)
Relative humidity10 %
Density altitude2,982 ft. (909 m)
Flight conditions Visual Meteorological Conditions
Raw dataDAUE 160900Z VRB02KT 9999 FEW040 41/04 Q1015
An error has occurred. This application may no longer respond until reloaded. Reload 🗙